Strona główna
METAR-TAF:

METAR-TAF

Lotnisko :

Port lotniczy Nadi

Nadi, Fidżi

Szerokość geograficzna: 17-45S, Długość geograficzna: 177-27E, wysokość: 13 m

Aktualna obserwacja pogody

Raport powstał 32 minut temu, godzina 12:00 UTC
Wiatr 3 kt od wschodnio-południowy wschód
Temperatura 22°C
Wilgotność 94%
Ciśnienie 1013 hPa
Widzialność 10 km lub więcej
Mało chmury na wysokości 3000 ft

METAR: NFFN 181200Z 12003KT 9999 FEW030 22/21 Q1013 NOSIG

czas: 00:32 (12:32 UTC)

Prognoza

Raport powstał 1 godzina i 21 minut temu, godzina 11:11 UTC
Prognoza ważna od 18 godzina 12 UTC do 19 godzina 12 UTC
Wiatr 5 kt od wschód
Widzialność 10 km lub więcej
Rozproszone chmury na wysokości 2500 ft
Stopniowe zmiany
od 18 godzina 22 UTC do 18 godzina 24 UTC
Wiatr 10 kt od zachód
Stopniowe zmiany
od 19 godzina 05 UTC do 19 godzina 07 UTC
Wiatr 6 kt od wschód

TAF: NFFN 181111Z 1812/1912 10005KT 9999 SCT025 BECMG 1822/1824 27010KT BECMG 1905/1907 10006KT

Obserwacja i prognoza pogody dla ponad 4000 lotnisk (raport METAR i TAF).

Dostępne stacje oznaczono żółtymi i czerwonymi punktami na mapie.

Najedź kursorem aby zobaczyć nazwę stacji.

Kliknij aby zobaczyć obserwacje i prognozy pogody.

Aby zmienić mapę: kliknij na zielony przycisk z czarnym krzyżykiem, aby powiększyć; na zielony przycisk z myślnikiem, aby pomniejszyć; na zielone strzałki, aby przejść do map sąsiednich.


METAR-TAF: